sensor_id;sensor_type;location;lat;lon;timestamp;temperature;humidity
9215;DHT22;4642;51.364;6.788;2023-04-06T00:01:25;1.40;99.90
9215;DHT22;4642;51.364;6.788;2023-04-06T00:03:50;1.40;99.90
9215;DHT22;4642;51.364;6.788;2023-04-06T00:06:16;1.40;99.90
9215;DHT22;4642;51.364;6.788;2023-04-06T00:08:41;1.30;99.90
9215;DHT22;4642;51.364;6.788;2023-04-06T00:11:07;1.30;99.90
9215;DHT22;4642;51.364;6.788;2023-04-06T00:13:33;1.20;99.90
9215;DHT22;4642;51.364;6.788;2023-04-06T00:15:58;1.20;99.90
9215;DHT22;4642;51.364;6.788;2023-04-06T00:18:24;1.20;99.90
9215;DHT22;4642;51.364;6.788;2023-04-06T00:20:49;1.20;99.90
9215;DHT22;4642;51.364;6.788;2023-04-06T00:23:16;1.20;99.90
9215;DHT22;4642;51.364;6.788;2023-04-06T00:25:42;1.20;99.90
9215;DHT22;4642;51.364;6.788;2023-04-06T00:28:07;1.10;99.90
9215;DHT22;4642;51.364;6.788;2023-04-06T00:30:33;1.10;99.90
9215;DHT22;4642;51.364;6.788;2023-04-06T00:32:58;1.10;99.90
9215;DHT22;4642;51.364;6.788;2023-04-06T00:35:24;1.10;99.90
9215;DHT22;4642;51.364;6.788;2023-04-06T00:37:49;1.10;99.90
9215;DHT22;4642;51.364;6.788;2023-04-06T00:40:15;1.00;99.90
9215;DHT22;4642;51.364;6.788;2023-04-06T00:42:41;1.10;99.90
9215;DHT22;4642;51.364;6.788;2023-04-06T00:45:07;1.00;99.90
9215;DHT22;4642;51.364;6.788;2023-04-06T00:47:33;1.00;99.90
9215;DHT22;4642;51.364;6.788;2023-04-06T00:49:59;1.00;99.90
9215;DHT22;4642;51.364;6.788;2023-04-06T00:52:24;1.00;99.90
9215;DHT22;4642;51.364;6.788;2023-04-06T00:54:50;1.00;99.90
9215;DHT22;4642;51.364;6.788;2023-04-06T00:57:16;0.90;99.90
9215;DHT22;4642;51.364;6.788;2023-04-06T00:59:42;0.90;99.90
9215;DHT22;4642;51.364;6.788;2023-04-06T01:02:08;0.90;99.90
9215;DHT22;4642;51.364;6.788;2023-04-06T01:04:34;0.90;99.90
9215;DHT22;4642;51.364;6.788;2023-04-06T01:07:00;0.90;99.90
9215;DHT22;4642;51.364;6.788;2023-04-06T01:09:28;0.90;99.90
9215;DHT22;4642;51.364;6.788;2023-04-06T01:11:55;0.90;99.90
9215;DHT22;4642;51.364;6.788;2023-04-06T01:14:21;0.90;99.90
9215;DHT22;4642;51.364;6.788;2023-04-06T01:16:47;0.90;99.90
9215;DHT22;4642;51.364;6.788;2023-04-06T01:19:13;0.80;99.90
9215;DHT22;4642;51.364;6.788;2023-04-06T01:21:39;0.80;99.90
9215;DHT22;4642;51.364;6.788;2023-04-06T01:24:06;0.80;99.90
9215;DHT22;4642;51.364;6.788;2023-04-06T01:26:32;0.80;99.90
9215;DHT22;4642;51.364;6.788;2023-04-06T01:28:58;0.70;99.90
9215;DHT22;4642;51.364;6.788;2023-04-06T01:31:24;0.70;99.90
9215;DHT22;4642;51.364;6.788;2023-04-06T01:33:50;0.70;99.90
9215;DHT22;4642;51.364;6.788;2023-04-06T01:36:16;0.70;99.90
9215;DHT22;4642;51.364;6.788;2023-04-06T01:38:41;0.70;99.90
9215;DHT22;4642;51.364;6.788;2023-04-06T01:41:07;0.70;99.90
9215;DHT22;4642;51.364;6.788;2023-04-06T01:43:33;0.70;99.90
9215;DHT22;4642;51.364;6.788;2023-04-06T01:45:59;0.60;99.90
9215;DHT22;4642;51.364;6.788;2023-04-06T01:48:26;0.60;99.90
9215;DHT22;4642;51.364;6.788;2023-04-06T01:50:52;0.60;99.90
9215;DHT22;4642;51.364;6.788;2023-04-06T01:53:17;0.60;99.90
9215;DHT22;4642;51.364;6.788;2023-04-06T01:55:43;0.60;99.90
9215;DHT22;4642;51.364;6.788;2023-04-06T01:58:08;0.60;99.90
9215;DHT22;4642;51.364;6.788;2023-04-06T02:00:34;0.60;99.90
9215;DHT22;4642;51.364;6.788;2023-04-06T02:03:00;0.60;99.90
9215;DHT22;4642;51.364;6.788;2023-04-06T02:05:26;0.60;99.90
9215;DHT22;4642;51.364;6.788;2023-04-06T02:07:51;0.60;99.90
9215;DHT22;4642;51.364;6.788;2023-04-06T02:10:17;0.60;99.90
9215;DHT22;4642;51.364;6.788;2023-04-06T02:12:43;0.50;99.90
9215;DHT22;4642;51.364;6.788;2023-04-06T02:15:09;0.50;99.90
9215;DHT22;4642;51.364;6.788;2023-04-06T02:17:34;0.50;99.90
9215;DHT22;4642;51.364;6.788;2023-04-06T02:20:00;0.50;99.90
9215;DHT22;4642;51.364;6.788;2023-04-06T02:22:26;0.50;99.90
9215;DHT22;4642;51.364;6.788;2023-04-06T02:24:51;0.40;99.90
9215;DHT22;4642;51.364;6.788;2023-04-06T02:27:16;0.50;99.90
9215;DHT22;4642;51.364;6.788;2023-04-06T02:29:42;0.50;99.90
9215;DHT22;4642;51.364;6.788;2023-04-06T02:32:07;0.50;99.90
9215;DHT22;4642;51.364;6.788;2023-04-06T02:34:33;0.50;99.90
9215;DHT22;4642;51.364;6.788;2023-04-06T02:36:58;0.50;99.90
9215;DHT22;4642;51.364;6.788;2023-04-06T02:39:24;0.50;99.90
9215;DHT22;4642;51.364;6.788;2023-04-06T02:41:50;0.40;99.90
9215;DHT22;4642;51.364;6.788;2023-04-06T02:44:15;0.50;99.90
9215;DHT22;4642;51.364;6.788;2023-04-06T02:46:41;0.50;99.90
9215;DHT22;4642;51.364;6.788;2023-04-06T02:49:07;0.40;99.90
9215;DHT22;4642;51.364;6.788;2023-04-06T02:51:32;0.40;99.90
9215;DHT22;4642;51.364;6.788;2023-04-06T02:53:58;0.50;99.90
9215;DHT22;4642;51.364;6.788;2023-04-06T02:56:24;0.40;99.90
9215;DHT22;4642;51.364;6.788;2023-04-06T02:58:50;0.50;99.90
9215;DHT22;4642;51.364;6.788;2023-04-06T03:01:15;0.50;99.90
9215;DHT22;4642;51.364;6.788;2023-04-06T03:03:41;0.40;99.90
9215;DHT22;4642;51.364;6.788;2023-04-06T03:06:06;0.40;99.90
9215;DHT22;4642;51.364;6.788;2023-04-06T03:08:32;0.40;99.90
9215;DHT22;4642;51.364;6.788;2023-04-06T03:10:58;0.40;99.90
9215;DHT22;4642;51.364;6.788;2023-04-06T03:13:23;0.40;99.90
9215;DHT22;4642;51.364;6.788;2023-04-06T03:15:49;0.40;99.90
9215;DHT22;4642;51.364;6.788;2023-04-06T03:18:14;0.40;99.90
9215;DHT22;4642;51.364;6.788;2023-04-06T03:20:40;0.40;99.90
9215;DHT22;4642;51.364;6.788;2023-04-06T03:23:05;0.40;99.90
9215;DHT22;4642;51.364;6.788;2023-04-06T03:25:31;0.30;99.90
9215;DHT22;4642;51.364;6.788;2023-04-06T03:27:56;0.30;99.90
9215;DHT22;4642;51.364;6.788;2023-04-06T03:30:22;0.30;99.90
9215;DHT22;4642;51.364;6.788;2023-04-06T03:32:48;0.30;99.90
9215;DHT22;4642;51.364;6.788;2023-04-06T03:35:13;0.30;99.90
9215;DHT22;4642;51.364;6.788;2023-04-06T03:37:39;0.30;99.90
9215;DHT22;4642;51.364;6.788;2023-04-06T03:40:05;0.30;99.90
9215;DHT22;4642;51.364;6.788;2023-04-06T03:42:30;0.20;99.90
9215;DHT22;4642;51.364;6.788;2023-04-06T03:44:58;0.20;99.90
9215;DHT22;4642;51.364;6.788;2023-04-06T03:47:23;0.20;99.90
9215;DHT22;4642;51.364;6.788;2023-04-06T03:49:49;0.20;99.90
9215;DHT22;4642;51.364;6.788;2023-04-06T03:52:14;0.20;99.90
9215;DHT22;4642;51.364;6.788;2023-04-06T03:54:40;0.20;99.90
9215;DHT22;4642;51.364;6.788;2023-04-06T03:57:05;0.20;99.90
9215;DHT22;4642;51.364;6.788;2023-04-06T03:59:31;0.10;99.90
9215;DHT22;4642;51.364;6.788;2023-04-06T04:01:56;0.10;99.90
9215;DHT22;4642;51.364;6.788;2023-04-06T04:04:22;0.20;99.90
9215;DHT22;4642;51.364;6.788;2023-04-06T04:06:47;0.10;99.90
9215;DHT22;4642;51.364;6.788;2023-04-06T04:09:13;0.10;99.90
9215;DHT22;4642;51.364;6.788;2023-04-06T04:11:38;0.10;99.90
9215;DHT22;4642;51.364;6.788;2023-04-06T04:14:04;0.10;99.90
9215;DHT22;4642;51.364;6.788;2023-04-06T04:16:30;0.10;99.90
9215;DHT22;4642;51.364;6.788;2023-04-06T04:18:55;0.10;99.90
9215;DHT22;4642;51.364;6.788;2023-04-06T04:21:21;0.10;99.90
9215;DHT22;4642;51.364;6.788;2023-04-06T04:23:46;0.00;99.90
9215;DHT22;4642;51.364;6.788;2023-04-06T04:26:12;0.00;99.90
9215;DHT22;4642;51.364;6.788;2023-04-06T04:28:37;0.00;99.90
9215;DHT22;4642;51.364;6.788;2023-04-06T04:31:03;0.00;99.90
9215;DHT22;4642;51.364;6.788;2023-04-06T04:33:29;0.00;99.90
9215;DHT22;4642;51.364;6.788;2023-04-06T04:35:54;-0.10;99.90
9215;DHT22;4642;51.364;6.788;2023-04-06T04:38:20;-0.10;99.90
9215;DHT22;4642;51.364;6.788;2023-04-06T04:40:45;-0.10;99.90
9215;DHT22;4642;51.364;6.788;2023-04-06T04:43:11;-0.10;99.90
9215;DHT22;4642;51.364;6.788;2023-04-06T04:45:36;-0.10;99.90
9215;DHT22;4642;51.364;6.788;2023-04-06T04:48:02;-0.10;99.90
9215;DHT22;4642;51.364;6.788;2023-04-06T04:50:30;-0.10;99.90
9215;DHT22;4642;51.364;6.788;2023-04-06T04:52:55;-0.10;99.90
9215;DHT22;4642;51.364;6.788;2023-04-06T04:55:21;0.00;99.90
9215;DHT22;4642;51.364;6.788;2023-04-06T04:57:46;-0.10;99.90
9215;DHT22;4642;51.364;6.788;2023-04-06T05:00:12;-0.10;99.90
9215;DHT22;4642;51.364;6.788;2023-04-06T05:02:38;-0.10;99.90
9215;DHT22;4642;51.364;6.788;2023-04-06T05:05:04;0.00;99.90
9215;DHT22;4642;51.364;6.788;2023-04-06T05:07:30;0.00;99.90
9215;DHT22;4642;51.364;6.788;2023-04-06T05:09:56;0.00;99.90
9215;DHT22;4642;51.364;6.788;2023-04-06T05:12:21;0.00;99.90
9215;DHT22;4642;51.364;6.788;2023-04-06T05:14:47;0.00;99.90
9215;DHT22;4642;51.364;6.788;2023-04-06T05:17:13;0.10;99.90
9215;DHT22;4642;51.364;6.788;2023-04-06T05:19:38;0.10;99.90
9215;DHT22;4642;51.364;6.788;2023-04-06T05:22:04;0.10;99.90
9215;DHT22;4642;51.364;6.788;2023-04-06T05:24:30;0.20;99.90
9215;DHT22;4642;51.364;6.788;2023-04-06T05:26:55;0.10;99.90
9215;DHT22;4642;51.364;6.788;2023-04-06T05:29:21;0.20;99.90
9215;DHT22;4642;51.364;6.788;2023-04-06T05:31:46;0.20;99.90
9215;DHT22;4642;51.364;6.788;2023-04-06T05:34:12;0.30;99.90
9215;DHT22;4642;51.364;6.788;2023-04-06T05:36:38;0.30;99.90
9215;DHT22;4642;51.364;6.788;2023-04-06T05:39:05;0.30;99.90
9215;DHT22;4642;51.364;6.788;2023-04-06T05:41:31;0.30;99.90
9215;DHT22;4642;51.364;6.788;2023-04-06T05:43:56;0.40;99.90
9215;DHT22;4642;51.364;6.788;2023-04-06T05:46:22;0.40;99.90
9215;DHT22;4642;51.364;6.788;2023-04-06T05:48:48;0.40;99.90
9215;DHT22;4642;51.364;6.788;2023-04-06T05:51:13;0.50;99.90
9215;DHT22;4642;51.364;6.788;2023-04-06T05:53:39;0.50;99.90
9215;DHT22;4642;51.364;6.788;2023-04-06T05:56:05;0.60;99.90
9215;DHT22;4642;51.364;6.788;2023-04-06T05:58:30;0.60;99.90
9215;DHT22;4642;51.364;6.788;2023-04-06T06:01:00;0.70;99.90
9215;DHT22;4642;51.364;6.788;2023-04-06T06:03:25;0.80;99.90
9215;DHT22;4642;51.364;6.788;2023-04-06T06:05:51;0.80;99.90
9215;DHT22;4642;51.364;6.788;2023-04-06T06:08:17;0.80;99.90
9215;DHT22;4642;51.364;6.788;2023-04-06T06:10:42;0.90;99.90
9215;DHT22;4642;51.364;6.788;2023-04-06T06:13:08;1.00;99.90
9215;DHT22;4642;51.364;6.788;2023-04-06T06:15:34;1.00;99.90
9215;DHT22;4642;51.364;6.788;2023-04-06T06:17:59;1.10;99.90
9215;DHT22;4642;51.364;6.788;2023-04-06T06:20:25;1.20;99.90
9215;DHT22;4642;51.364;6.788;2023-04-06T06:22:52;1.20;99.90
9215;DHT22;4642;51.364;6.788;2023-04-06T06:25:17;1.30;99.90
9215;DHT22;4642;51.364;6.788;2023-04-06T06:27:43;1.40;99.90
9215;DHT22;4642;51.364;6.788;2023-04-06T06:30:09;1.50;99.90
9215;DHT22;4642;51.364;6.788;2023-04-06T06:32:34;1.60;99.90
9215;DHT22;4642;51.364;6.788;2023-04-06T06:35:00;1.70;99.90
9215;DHT22;4642;51.364;6.788;2023-04-06T06:37:25;1.80;99.90
9215;DHT22;4642;51.364;6.788;2023-04-06T06:39:51;1.90;99.90
9215;DHT22;4642;51.364;6.788;2023-04-06T06:42:17;2.10;99.90
9215;DHT22;4642;51.364;6.788;2023-04-06T06:44:42;2.20;99.90
9215;DHT22;4642;51.364;6.788;2023-04-06T06:47:08;2.30;99.90
9215;DHT22;4642;51.364;6.788;2023-04-06T06:49:33;2.50;99.90
9215;DHT22;4642;51.364;6.788;2023-04-06T06:51:59;2.60;99.90
9215;DHT22;4642;51.364;6.788;2023-04-06T06:54:24;2.70;99.90
9215;DHT22;4642;51.364;6.788;2023-04-06T06:56:50;2.80;99.90
9215;DHT22;4642;51.364;6.788;2023-04-06T06:59:15;3.00;99.90
9215;DHT22;4642;51.364;6.788;2023-04-06T07:01:41;3.10;99.90
9215;DHT22;4642;51.364;6.788;2023-04-06T07:04:07;3.30;99.90
9215;DHT22;4642;51.364;6.788;2023-04-06T07:06:35;3.30;99.90
9215;DHT22;4642;51.364;6.788;2023-04-06T07:09:01;3.40;99.90
9215;DHT22;4642;51.364;6.788;2023-04-06T07:11:28;3.60;99.90
9215;DHT22;4642;51.364;6.788;2023-04-06T07:13:54;3.70;99.90
9215;DHT22;4642;51.364;6.788;2023-04-06T07:16:19;3.90;99.90
9215;DHT22;4642;51.364;6.788;2023-04-06T07:18:45;4.00;99.90
9215;DHT22;4642;51.364;6.788;2023-04-06T07:21:11;4.10;99.90
9215;DHT22;4642;51.364;6.788;2023-04-06T07:23:37;4.20;99.90
9215;DHT22;4642;51.364;6.788;2023-04-06T07:26:02;4.30;99.90
9215;DHT22;4642;51.364;6.788;2023-04-06T07:28:28;4.40;99.90
9215;DHT22;4642;51.364;6.788;2023-04-06T07:30:54;4.60;99.90
9215;DHT22;4642;51.364;6.788;2023-04-06T07:33:19;4.70;99.90
9215;DHT22;4642;51.364;6.788;2023-04-06T07:35:45;4.80;99.90
9215;DHT22;4642;51.364;6.788;2023-04-06T07:38:11;5.00;99.90
9215;DHT22;4642;51.364;6.788;2023-04-06T07:40:36;5.10;99.90
9215;DHT22;4642;51.364;6.788;2023-04-06T07:43:02;5.20;99.90
9215;DHT22;4642;51.364;6.788;2023-04-06T07:45:28;5.30;99.90
9215;DHT22;4642;51.364;6.788;2023-04-06T07:47:54;5.40;99.90
9215;DHT22;4642;51.364;6.788;2023-04-06T07:50:20;5.50;99.90
9215;DHT22;4642;51.364;6.788;2023-04-06T07:52:45;5.60;99.90
9215;DHT22;4642;51.364;6.788;2023-04-06T07:55:11;5.70;99.90
9215;DHT22;4642;51.364;6.788;2023-04-06T07:57:37;5.90;99.90
9215;DHT22;4642;51.364;6.788;2023-04-06T08:00:03;6.00;99.90
9215;DHT22;4642;51.364;6.788;2023-04-06T08:02:31;6.10;99.90
9215;DHT22;4642;51.364;6.788;2023-04-06T08:04:56;6.20;99.90
9215;DHT22;4642;51.364;6.788;2023-04-06T08:07:22;6.30;99.90
9215;DHT22;4642;51.364;6.788;2023-04-06T08:09:47;6.50;99.90
9215;DHT22;4642;51.364;6.788;2023-04-06T08:12:14;6.60;99.90
9215;DHT22;4642;51.364;6.788;2023-04-06T08:14:39;6.70;99.90
9215;DHT22;4642;51.364;6.788;2023-04-06T08:17:05;6.90;99.90
9215;DHT22;4642;51.364;6.788;2023-04-06T08:19:30;7.00;99.90
9215;DHT22;4642;51.364;6.788;2023-04-06T08:21:56;7.00;99.90
9215;DHT22;4642;51.364;6.788;2023-04-06T08:24:21;7.10;99.90
9215;DHT22;4642;51.364;6.788;2023-04-06T08:26:47;7.30;99.90
9215;DHT22;4642;51.364;6.788;2023-04-06T08:29:13;7.40;99.90
9215;DHT22;4642;51.364;6.788;2023-04-06T08:31:38;7.50;99.90
9215;DHT22;4642;51.364;6.788;2023-04-06T08:34:04;7.60;99.90
9215;DHT22;4642;51.364;6.788;2023-04-06T08:36:31;7.70;99.90
9215;DHT22;4642;51.364;6.788;2023-04-06T08:38:57;7.80;99.90
9215;DHT22;4642;51.364;6.788;2023-04-06T08:41:22;7.80;99.90
9215;DHT22;4642;51.364;6.788;2023-04-06T08:43:56;7.90;99.90
9215;DHT22;4642;51.364;6.788;2023-04-06T08:46:24;7.90;99.90
9215;DHT22;4642;51.364;6.788;2023-04-06T08:48:55;8.00;99.90
9215;DHT22;4642;51.364;6.788;2023-04-06T08:51:23;8.10;99.90
9215;DHT22;4642;51.364;6.788;2023-04-06T08:53:49;8.20;99.90
9215;DHT22;4642;51.364;6.788;2023-04-06T08:56:15;8.30;99.90
9215;DHT22;4642;51.364;6.788;2023-04-06T08:58:41;8.30;99.90
9215;DHT22;4642;51.364;6.788;2023-04-06T09:01:09;8.40;99.90
9215;DHT22;4642;51.364;6.788;2023-04-06T09:03:40;8.50;99.90
9215;DHT22;4642;51.364;6.788;2023-04-06T09:06:07;8.60;99.90
9215;DHT22;4642;51.364;6.788;2023-04-06T09:08:39;8.70;99.90
9215;DHT22;4642;51.364;6.788;2023-04-06T09:11:06;8.90;99.90
9215;DHT22;4642;51.364;6.788;2023-04-06T09:13:43;9.00;99.90
9215;DHT22;4642;51.364;6.788;2023-04-06T09:16:09;9.10;99.90
9215;DHT22;4642;51.364;6.788;2023-04-06T09:18:34;9.20;99.90
9215;DHT22;4642;51.364;6.788;2023-04-06T09:21:02;9.30;99.90
9215;DHT22;4642;51.364;6.788;2023-04-06T09:23:28;9.50;99.90
9215;DHT22;4642;51.364;6.788;2023-04-06T09:26:05;9.60;99.90
9215;DHT22;4642;51.364;6.788;2023-04-06T09:28:54;9.70;99.90
9215;DHT22;4642;51.364;6.788;2023-04-06T09:31:27;9.90;99.90
9215;DHT22;4642;51.364;6.788;2023-04-06T09:33:53;9.90;99.90
9215;DHT22;4642;51.364;6.788;2023-04-06T09:36:32;10.00;99.90
9215;DHT22;4642;51.364;6.788;2023-04-06T09:38:59;10.10;99.90
9215;DHT22;4642;51.364;6.788;2023-04-06T09:41:28;10.20;99.90
9215;DHT22;4642;51.364;6.788;2023-04-06T09:46:52;10.30;99.90
9215;DHT22;4642;51.364;6.788;2023-04-06T09:49:18;10.40;99.90
9215;DHT22;4642;51.364;6.788;2023-04-06T09:51:53;10.50;99.90
9215;DHT22;4642;51.364;6.788;2023-04-06T09:54:21;10.50;99.90
9215;DHT22;4642;51.364;6.788;2023-04-06T09:56:58;10.60;99.90
9215;DHT22;4642;51.364;6.788;2023-04-06T10:02:05;10.80;99.90
9215;DHT22;4642;51.364;6.788;2023-04-06T10:07:08;10.90;99.90
9215;DHT22;4642;51.364;6.788;2023-04-06T10:09:37;11.00;99.90
9215;DHT22;4642;51.364;6.788;2023-04-06T10:12:06;11.10;99.90
9215;DHT22;4642;51.364;6.788;2023-04-06T10:14:34;11.20;99.90
9215;DHT22;4642;51.364;6.788;2023-04-06T10:17:03;11.30;99.90
9215;DHT22;4642;51.364;6.788;2023-04-06T10:19:36;11.40;99.90
9215;DHT22;4642;51.364;6.788;2023-04-06T10:22:05;11.40;99.90
9215;DHT22;4642;51.364;6.788;2023-04-06T10:24:35;11.50;99.90
9215;DHT22;4642;51.364;6.788;2023-04-06T10:27:01;11.60;99.90
9215;DHT22;4642;51.364;6.788;2023-04-06T10:29:28;11.70;99.90
9215;DHT22;4642;51.364;6.788;2023-04-06T10:31:53;11.70;99.90
9215;DHT22;4642;51.364;6.788;2023-04-06T10:34:20;11.70;99.90
9215;DHT22;4642;51.364;6.788;2023-04-06T10:36:46;11.80;99.90
9215;DHT22;4642;51.364;6.788;2023-04-06T10:39:11;11.80;99.90
9215;DHT22;4642;51.364;6.788;2023-04-06T10:41:44;11.90;99.90
9215;DHT22;4642;51.364;6.788;2023-04-06T10:44:22;11.90;99.90
9215;DHT22;4642;51.364;6.788;2023-04-06T10:46:59;11.90;99.90
9215;DHT22;4642;51.364;6.788;2023-04-06T10:49:27;12.10;99.90
9215;DHT22;4642;51.364;6.788;2023-04-06T10:51:56;12.00;99.90
9215;DHT22;4642;51.364;6.788;2023-04-06T10:54:24;12.10;99.90
9215;DHT22;4642;51.364;6.788;2023-04-06T10:56:56;12.10;99.90
9215;DHT22;4642;51.364;6.788;2023-04-06T10:59:22;12.20;99.90
9215;DHT22;4642;51.364;6.788;2023-04-06T11:01:49;12.20;99.90
9215;DHT22;4642;51.364;6.788;2023-04-06T11:04:19;12.30;99.90
9215;DHT22;4642;51.364;6.788;2023-04-06T11:06:49;12.40;99.90
9215;DHT22;4642;51.364;6.788;2023-04-06T11:11:50;12.50;99.90
9215;DHT22;4642;51.364;6.788;2023-04-06T11:14:16;12.50;99.90
9215;DHT22;4642;51.364;6.788;2023-04-06T11:16:41;12.50;99.90
9215;DHT22;4642;51.364;6.788;2023-04-06T11:19:07;12.60;99.90
9215;DHT22;4642;51.364;6.788;2023-04-06T11:21:39;12.60;99.90
9215;DHT22;4642;51.364;6.788;2023-04-06T11:24:13;12.70;99.90
9215;DHT22;4642;51.364;6.788;2023-04-06T11:29:24;12.60;99.90
9215;DHT22;4642;51.364;6.788;2023-04-06T11:31:52;12.60;99.90
9215;DHT22;4642;51.364;6.788;2023-04-06T11:34:22;12.60;99.90
9215;DHT22;4642;51.364;6.788;2023-04-06T11:36:53;12.60;99.90
9215;DHT22;4642;51.364;6.788;2023-04-06T11:39:21;12.50;99.90
9215;DHT22;4642;51.364;6.788;2023-04-06T11:41:49;12.50;99.90
9215;DHT22;4642;51.364;6.788;2023-04-06T11:44:15;12.40;99.90
9215;DHT22;4642;51.364;6.788;2023-04-06T11:46:41;12.40;99.90
9215;DHT22;4642;51.364;6.788;2023-04-06T11:49:16;12.40;99.90
9215;DHT22;4642;51.364;6.788;2023-04-06T11:51:42;12.40;99.90
9215;DHT22;4642;51.364;6.788;2023-04-06T11:54:13;12.50;99.90
9215;DHT22;4642;51.364;6.788;2023-04-06T11:56:39;12.30;99.90
9215;DHT22;4642;51.364;6.788;2023-04-06T11:59:04;12.40;99.90
9215;DHT22;4642;51.364;6.788;2023-04-06T12:01:30;12.30;99.90
9215;DHT22;4642;51.364;6.788;2023-04-06T12:03:56;12.70;99.90
9215;DHT22;4642;51.364;6.788;2023-04-06T12:06:21;12.80;99.90
9215;DHT22;4642;51.364;6.788;2023-04-06T12:08:48;12.40;99.90
9215;DHT22;4642;51.364;6.788;2023-04-06T12:11:17;12.50;99.90
9215;DHT22;4642;51.364;6.788;2023-04-06T12:13:47;12.50;99.90
9215;DHT22;4642;51.364;6.788;2023-04-06T12:16:12;12.40;99.90
9215;DHT22;4642;51.364;6.788;2023-04-06T12:18:38;12.50;99.90
9215;DHT22;4642;51.364;6.788;2023-04-06T12:21:03;12.50;99.90
9215;DHT22;4642;51.364;6.788;2023-04-06T12:23:30;12.50;99.90
9215;DHT22;4642;51.364;6.788;2023-04-06T12:25:56;12.60;99.90
9215;DHT22;4642;51.364;6.788;2023-04-06T12:28:21;12.50;99.90
9215;DHT22;4642;51.364;6.788;2023-04-06T12:30:50;12.50;99.90
9215;DHT22;4642;51.364;6.788;2023-04-06T12:33:16;12.50;99.90
9215;DHT22;4642;51.364;6.788;2023-04-06T12:35:42;12.60;99.90
9215;DHT22;4642;51.364;6.788;2023-04-06T12:38:07;12.60;99.90
9215;DHT22;4642;51.364;6.788;2023-04-06T12:40:37;12.70;99.90
9215;DHT22;4642;51.364;6.788;2023-04-06T12:43:02;12.70;99.90
9215;DHT22;4642;51.364;6.788;2023-04-06T12:45:28;12.70;99.90
9215;DHT22;4642;51.364;6.788;2023-04-06T12:47:55;12.70;99.90
9215;DHT22;4642;51.364;6.788;2023-04-06T12:50:20;12.80;99.90
9215;DHT22;4642;51.364;6.788;2023-04-06T12:52:47;12.70;99.90
9215;DHT22;4642;51.364;6.788;2023-04-06T12:55:13;12.80;99.90
9215;DHT22;4642;51.364;6.788;2023-04-06T12:57:38;12.80;99.90
9215;DHT22;4642;51.364;6.788;2023-04-06T13:00:05;12.70;99.90
9215;DHT22;4642;51.364;6.788;2023-04-06T13:02:31;12.60;99.90
9215;DHT22;4642;51.364;6.788;2023-04-06T13:04:56;12.60;99.90
9215;DHT22;4642;51.364;6.788;2023-04-06T13:07:22;12.60;99.90
9215;DHT22;4642;51.364;6.788;2023-04-06T13:09:48;12.70;99.90
9215;DHT22;4642;51.364;6.788;2023-04-06T13:12:15;12.60;99.90
9215;DHT22;4642;51.364;6.788;2023-04-06T13:14:41;12.50;99.90
9215;DHT22;4642;51.364;6.788;2023-04-06T13:17:06;12.60;99.90
9215;DHT22;4642;51.364;6.788;2023-04-06T13:19:32;12.60;99.90
9215;DHT22;4642;51.364;6.788;2023-04-06T13:21:58;12.70;99.90
9215;DHT22;4642;51.364;6.788;2023-04-06T13:24:23;12.70;99.90
9215;DHT22;4642;51.364;6.788;2023-04-06T13:26:49;12.70;99.90
9215;DHT22;4642;51.364;6.788;2023-04-06T13:29:15;12.70;99.90
9215;DHT22;4642;51.364;6.788;2023-04-06T13:31:41;12.70;1.00
9215;DHT22;4642;51.364;6.788;2023-04-06T13:34:06;12.60;1.00
9215;DHT22;4642;51.364;6.788;2023-04-06T13:36:32;12.60;1.00
9215;DHT22;4642;51.364;6.788;2023-04-06T13:38:58;12.60;1.00
9215;DHT22;4642;51.364;6.788;2023-04-06T13:41:24;12.60;1.80
9215;DHT22;4642;51.364;6.788;2023-04-06T13:43:52;12.60;1.00
9215;DHT22;4642;51.364;6.788;2023-04-06T13:46:17;12.50;1.00
9215;DHT22;4642;51.364;6.788;2023-04-06T13:48:43;12.20;1.00
9215;DHT22;4642;51.364;6.788;2023-04-06T13:51:10;12.10;67.10
9215;DHT22;4642;51.364;6.788;2023-04-06T13:53:36;12.10;91.80
9215;DHT22;4642;51.364;6.788;2023-04-06T13:56:01;12.00;99.90
9215;DHT22;4642;51.364;6.788;2023-04-06T13:58:27;12.10;99.90
9215;DHT22;4642;51.364;6.788;2023-04-06T14:00:53;11.90;99.90
9215;DHT22;4642;51.364;6.788;2023-04-06T14:03:19;12.00;99.90
9215;DHT22;4642;51.364;6.788;2023-04-06T14:05:45;11.90;99.90
9215;DHT22;4642;51.364;6.788;2023-04-06T14:08:11;11.90;99.90
9215;DHT22;4642;51.364;6.788;2023-04-06T14:10:38;11.90;99.90
9215;DHT22;4642;51.364;6.788;2023-04-06T14:13:03;11.60;99.90
9215;DHT22;4642;51.364;6.788;2023-04-06T14:15:29;11.50;99.90
9215;DHT22;4642;51.364;6.788;2023-04-06T14:17:55;11.50;99.90
9215;DHT22;4642;51.364;6.788;2023-04-06T14:20:21;11.40;99.90
9215;DHT22;4642;51.364;6.788;2023-04-06T14:22:46;11.50;99.90
9215;DHT22;4642;51.364;6.788;2023-04-06T14:25:14;11.50;99.90
9215;DHT22;4642;51.364;6.788;2023-04-06T14:27:41;11.60;99.90
9215;DHT22;4642;51.364;6.788;2023-04-06T14:30:07;11.70;99.90
9215;DHT22;4642;51.364;6.788;2023-04-06T14:32:33;11.80;99.90
9215;DHT22;4642;51.364;6.788;2023-04-06T14:34:59;11.90;99.90
9215;DHT22;4642;51.364;6.788;2023-04-06T14:37:25;11.90;99.90
9215;DHT22;4642;51.364;6.788;2023-04-06T14:39:51;12.00;99.90
9215;DHT22;4642;51.364;6.788;2023-04-06T14:42:17;11.80;99.90
9215;DHT22;4642;51.364;6.788;2023-04-06T14:44:42;11.60;99.90
9215;DHT22;4642;51.364;6.788;2023-04-06T14:47:10;11.50;99.90
9215;DHT22;4642;51.364;6.788;2023-04-06T14:49:36;11.40;99.90
9215;DHT22;4642;51.364;6.788;2023-04-06T14:52:02;11.40;99.90
9215;DHT22;4642;51.364;6.788;2023-04-06T14:54:28;11.50;99.90
9215;DHT22;4642;51.364;6.788;2023-04-06T14:56:53;11.40;99.90
9215;DHT22;4642;51.364;6.788;2023-04-06T14:59:19;11.30;99.90
9215;DHT22;4642;51.364;6.788;2023-04-06T15:01:45;11.30;99.90
9215;DHT22;4642;51.364;6.788;2023-04-06T15:04:10;11.20;99.90
9215;DHT22;4642;51.364;6.788;2023-04-06T15:06:36;11.20;99.90
9215;DHT22;4642;51.364;6.788;2023-04-06T15:09:02;11.10;99.90
9215;DHT22;4642;51.364;6.788;2023-04-06T15:11:28;11.10;99.90
9215;DHT22;4642;51.364;6.788;2023-04-06T15:13:53;11.00;99.90
9215;DHT22;4642;51.364;6.788;2023-04-06T15:16:19;11.00;99.90
9215;DHT22;4642;51.364;6.788;2023-04-06T15:18:45;10.80;99.90
9215;DHT22;4642;51.364;6.788;2023-04-06T15:21:10;10.70;99.90
9215;DHT22;4642;51.364;6.788;2023-04-06T15:23:36;10.70;99.90
9215;DHT22;4642;51.364;6.788;2023-04-06T15:26:02;10.60;99.90
9215;DHT22;4642;51.364;6.788;2023-04-06T15:28:27;10.60;99.90
9215;DHT22;4642;51.364;6.788;2023-04-06T15:30:54;10.60;99.90
9215;DHT22;4642;51.364;6.788;2023-04-06T15:33:21;10.60;99.90
9215;DHT22;4642;51.364;6.788;2023-04-06T15:35:47;10.50;99.90
9215;DHT22;4642;51.364;6.788;2023-04-06T15:38:13;10.40;99.90
9215;DHT22;4642;51.364;6.788;2023-04-06T15:40:46;10.40;99.90
9215;DHT22;4642;51.364;6.788;2023-04-06T15:43:13;10.40;99.90
9215;DHT22;4642;51.364;6.788;2023-04-06T15:45:39;10.30;99.90
9215;DHT22;4642;51.364;6.788;2023-04-06T15:48:06;10.30;99.90
9215;DHT22;4642;51.364;6.788;2023-04-06T15:50:32;10.30;99.90
9215;DHT22;4642;51.364;6.788;2023-04-06T15:52:58;10.20;99.90
9215;DHT22;4642;51.364;6.788;2023-04-06T15:55:24;10.10;99.90
9215;DHT22;4642;51.364;6.788;2023-04-06T15:57:51;10.10;99.90
9215;DHT22;4642;51.364;6.788;2023-04-06T16:00:17;10.10;99.90
9215;DHT22;4642;51.364;6.788;2023-04-06T16:02:43;10.00;99.90
9215;DHT22;4642;51.364;6.788;2023-04-06T16:05:08;9.90;99.90
9215;DHT22;4642;51.364;6.788;2023-04-06T16:07:34;9.90;99.90
9215;DHT22;4642;51.364;6.788;2023-04-06T16:10:00;9.80;99.90
9215;DHT22;4642;51.364;6.788;2023-04-06T16:12:26;9.80;99.90
9215;DHT22;4642;51.364;6.788;2023-04-06T16:14:52;9.70;99.90
9215;DHT22;4642;51.364;6.788;2023-04-06T16:17:17;9.70;99.90
9215;DHT22;4642;51.364;6.788;2023-04-06T16:19:43;9.60;99.90